IBE237 TJSJ-MDPC
Flight info
| Callsign | IBE237 |
|---|---|
| Flight time | 0h 36m |
| Altitude | 20000 |
| Route | SJU RTE2 BQN B520 ANTEX ANTEX2B |
| Aircraft | A21N/M-SDE2E3FGHIRWXY/LB1 |
Departure
| Time | 2026-04-28 17:42 |
|---|---|
| Airport | Luis Munoz Marin International Airport (TJSJ) |
Arrival
| Time | 2026-04-28 18:19 |
|---|---|
| Airport | Punta Cana International Airport (MDPC) |
| Time | Latitude | Longitude | Altitude | Speed | Heading |
|---|---|---|---|---|---|
| 2026-04-28 17:11 | 18.43949 | -66.00703 | 27 ft | 0 kts | 153° |
| 2026-04-28 17:34 | 18.43954 | -66.00706 | 26 ft | 2 kts | 153° |
| 2026-04-28 17:34 | 18.43971 | -66.00714 | 30 ft | 3 kts | 157° |
| 2026-04-28 17:34 | 18.43990 | -66.00722 | 27 ft | 3 kts | 164° |
| 2026-04-28 17:34 | 18.44010 | -66.00726 | 29 ft | 3 kts | 179° |
| 2026-04-28 17:35 | 18.44028 | -66.00724 | 29 ft | 3 kts | 213° |
| 2026-04-28 17:35 | 18.44036 | -66.00715 | 30 ft | 1 kts | 247° |
| 2026-04-28 17:35 | 18.44038 | -66.00711 | 28 ft | 0 kts | 247° |
| 2026-04-28 17:37 | 18.44036 | -66.00715 | 30 ft | 2 kts | 246° |
| 2026-04-28 17:38 | 18.44026 | -66.00739 | 30 ft | 5 kts | 246° |
| 2026-04-28 17:38 | 18.44007 | -66.00784 | 27 ft | 8 kts | 246° |
| 2026-04-28 17:38 | 18.43980 | -66.00850 | 25 ft | 11 kts | 246° |
| 2026-04-28 17:38 | 18.43944 | -66.00935 | 27 ft | 14 kts | 247° |
| 2026-04-28 17:39 | 18.43913 | -66.01016 | 25 ft | 8 kts | 250° |
| 2026-04-28 17:39 | 18.43891 | -66.01080 | 27 ft | 11 kts | 249° |
| 2026-04-28 17:39 | 18.43821 | -66.01266 | 24 ft | 16 kts | 250° |
| 2026-04-28 17:40 | 18.43807 | -66.01337 | 24 ft | 8 kts | 271° |
| 2026-04-28 17:40 | 18.43791 | -66.01402 | 25 ft | 10 kts | 251° |
| 2026-04-28 17:40 | 18.43839 | -66.01459 | 23 ft | 11 kts | 332° |
| 2026-04-28 17:40 | 18.43879 | -66.01457 | 25 ft | 8 kts | 61° |
| 2026-04-28 17:41 | 18.43908 | -66.01405 | 23 ft | 0 kts | 65° |
| 2026-04-28 17:41 | 18.43909 | -66.01403 | 23 ft | 4 kts | 65° |
| 2026-04-28 17:42 | 18.43982 | -66.01225 | 24 ft | 64 kts | 68° |
| 2026-04-28 17:42 | 18.44142 | -66.00820 | 27 ft | 114 kts | 66° |
| 2026-04-28 17:42 | 18.44690 | -65.99463 | 371 ft | 159 kts | 65° |
| 2026-04-28 17:42 | 18.45231 | -65.98469 | 1182 ft | 166 kts | 49° |
| 2026-04-28 17:43 | 18.46298 | -65.97909 | 1813 ft | 187 kts | 7° |
| 2026-04-28 17:43 | 18.47684 | -65.98197 | 2605 ft | 216 kts | 346° |
| 2026-04-28 17:43 | 18.49282 | -65.98587 | 3336 ft | 253 kts | 349° |
| 2026-04-28 17:43 | 18.51086 | -65.98951 | 4308 ft | 270 kts | 350° |
| 2026-04-28 17:44 | 18.52935 | -65.99302 | 5482 ft | 275 kts | 350° |
| 2026-04-28 17:44 | 18.54840 | -65.99652 | 6684 ft | 278 kts | 350° |
| 2026-04-28 17:44 | 18.56767 | -65.99999 | 7799 ft | 284 kts | 350° |
| 2026-04-28 17:44 | 18.58710 | -66.00347 | 8897 ft | 289 kts | 349° |
| 2026-04-28 17:45 | 18.60705 | -66.00720 | 9991 ft | 293 kts | 347° |
| 2026-04-28 17:45 | 18.62694 | -66.01420 | 10642 ft | 313 kts | 332° |
| 2026-04-28 17:45 | 18.64532 | -66.02800 | 11147 ft | 333 kts | 314° |
| 2026-04-28 17:45 | 18.65916 | -66.04786 | 11742 ft | 347 kts | 295° |
| 2026-04-28 17:46 | 18.66650 | -66.07229 | 12610 ft | 352 kts | 277° |
| 2026-04-28 17:46 | 18.66610 | -66.09806 | 13583 ft | 354 kts | 259° |
| 2026-04-28 17:46 | 18.65887 | -66.12303 | 14470 ft | 357 kts | 248° |
| 2026-04-28 17:46 | 18.64925 | -66.14739 | 15311 ft | 361 kts | 247° |
| 2026-04-28 17:47 | 18.63958 | -66.17168 | 16124 ft | 366 kts | 247° |
| 2026-04-28 17:47 | 18.62977 | -66.19680 | 16956 ft | 371 kts | 248° |
| 2026-04-28 17:47 | 18.62005 | -66.22218 | 17603 ft | 375 kts | 248° |
| 2026-04-28 17:47 | 18.61358 | -66.23916 | 17848 ft | 376 kts | 248° |
| 2026-04-28 17:48 | 18.60068 | -66.27322 | 18039 ft | 377 kts | 248° |
| 2026-04-28 17:48 | 18.59095 | -66.29889 | 18079 ft | 377 kts | 248° |
| 2026-04-28 17:48 | 18.58123 | -66.32454 | 18088 ft | 377 kts | 248° |
| 2026-04-28 17:48 | 18.57149 | -66.35025 | 18445 ft | 378 kts | 248° |
| 2026-04-28 17:49 | 18.56166 | -66.37620 | 19053 ft | 382 kts | 248° |
| 2026-04-28 17:49 | 18.55175 | -66.40236 | 19631 ft | 385 kts | 248° |
| 2026-04-28 17:49 | 18.54177 | -66.42872 | 19953 ft | 387 kts | 248° |
| 2026-04-28 17:49 | 18.53195 | -66.45466 | 20070 ft | 380 kts | 248° |
| 2026-04-28 17:50 | 18.52231 | -66.48008 | 20096 ft | 368 kts | 248° |
| 2026-04-28 17:50 | 18.51284 | -66.50510 | 20109 ft | 367 kts | 248° |
| 2026-04-28 17:50 | 18.50349 | -66.52979 | 20108 ft | 367 kts | 248° |
| 2026-04-28 17:50 | 18.49395 | -66.55491 | 20103 ft | 367 kts | 248° |
| 2026-04-28 17:51 | 18.48449 | -66.57988 | 20099 ft | 366 kts | 248° |
| 2026-04-28 17:51 | 18.47747 | -66.60561 | 20095 ft | 367 kts | 260° |
| 2026-04-28 17:51 | 18.47656 | -66.63221 | 20103 ft | 369 kts | 270° |
| 2026-04-28 17:51 | 18.47780 | -66.65920 | 20101 ft | 369 kts | 271° |
| 2026-04-28 17:52 | 18.47919 | -66.68633 | 20102 ft | 369 kts | 271° |
| 2026-04-28 17:52 | 18.48051 | -66.71340 | 20101 ft | 369 kts | 271° |
| 2026-04-28 17:52 | 18.48289 | -66.76652 | 20097 ft | 364 kts | 271° |
| 2026-04-28 17:53 | 18.48403 | -66.79313 | 20096 ft | 364 kts | 271° |
| 2026-04-28 17:53 | 18.48515 | -66.81971 | 20095 ft | 364 kts | 271° |
| 2026-04-28 17:53 | 18.48627 | -66.84635 | 20092 ft | 364 kts | 271° |
| 2026-04-28 17:53 | 18.48746 | -66.87294 | 20089 ft | 364 kts | 271° |
| 2026-04-28 17:54 | 18.48870 | -66.89962 | 20089 ft | 364 kts | 271° |
| 2026-04-28 17:54 | 18.48994 | -66.92619 | 20089 ft | 363 kts | 271° |
| 2026-04-28 17:54 | 18.49116 | -66.95276 | 20084 ft | 364 kts | 271° |
| 2026-04-28 17:54 | 18.49238 | -66.97939 | 20084 ft | 363 kts | 271° |
| 2026-04-28 17:55 | 18.49360 | -67.00599 | 20084 ft | 363 kts | 271° |
| 2026-04-28 17:55 | 18.49482 | -67.03258 | 20081 ft | 363 kts | 271° |
| 2026-04-28 17:55 | 18.49601 | -67.05917 | 20085 ft | 363 kts | 271° |
| 2026-04-28 17:55 | 18.49721 | -67.08582 | 20082 ft | 363 kts | 271° |
| 2026-04-28 17:56 | 18.49811 | -67.11237 | 20078 ft | 363 kts | 268° |
| 2026-04-28 17:56 | 18.49777 | -67.13895 | 20080 ft | 363 kts | 267° |
| 2026-04-28 17:56 | 18.49725 | -67.16554 | 20083 ft | 363 kts | 267° |
| 2026-04-28 17:56 | 18.49672 | -67.19206 | 20081 ft | 363 kts | 267° |
| 2026-04-28 17:57 | 18.49618 | -67.21863 | 20082 ft | 363 kts | 267° |
| 2026-04-28 17:57 | 18.49563 | -67.24516 | 20083 ft | 363 kts | 267° |
| 2026-04-28 17:57 | 18.49511 | -67.27169 | 20081 ft | 363 kts | 267° |
| 2026-04-28 17:57 | 18.49456 | -67.29824 | 20082 ft | 363 kts | 267° |
| 2026-04-28 17:58 | 18.49402 | -67.32484 | 20084 ft | 363 kts | 267° |
| 2026-04-28 17:58 | 18.49347 | -67.35140 | 20086 ft | 363 kts | 267° |
| 2026-04-28 17:58 | 18.49294 | -67.37762 | 20081 ft | 359 kts | 267° |
| 2026-04-28 17:58 | 18.49241 | -67.40374 | 19523 ft | 356 kts | 267° |
| 2026-04-28 17:59 | 18.49188 | -67.42997 | 18741 ft | 361 kts | 267° |
| 2026-04-28 17:59 | 18.49131 | -67.45652 | 18042 ft | 361 kts | 267° |
| 2026-04-28 17:59 | 18.49076 | -67.48289 | 17393 ft | 359 kts | 267° |
| 2026-04-28 17:59 | 18.49023 | -67.50903 | 16784 ft | 356 kts | 267° |
| 2026-04-28 18:00 | 18.48968 | -67.53504 | 16191 ft | 353 kts | 267° |
| 2026-04-28 18:00 | 18.48931 | -67.55217 | 15804 ft | 351 kts | 267° |
| 2026-04-28 18:00 | 18.48857 | -67.58635 | 15195 ft | 351 kts | 268° |
| 2026-04-28 18:00 | 18.48801 | -67.61203 | 15027 ft | 350 kts | 268° |
| 2026-04-28 18:01 | 18.48745 | -67.63768 | 14993 ft | 351 kts | 268° |
| 2026-04-28 18:01 | 18.48707 | -67.65472 | 14990 ft | 351 kts | 268° |
| 2026-04-28 18:01 | 18.48651 | -67.68040 | 14994 ft | 351 kts | 268° |
| 2026-04-28 18:01 | 18.48594 | -67.70610 | 14997 ft | 351 kts | 268° |
| 2026-04-28 18:02 | 18.48537 | -67.73180 | 15000 ft | 351 kts | 268° |
| 2026-04-28 18:02 | 18.48479 | -67.75753 | 15000 ft | 350 kts | 268° |
| 2026-04-28 18:02 | 18.48421 | -67.78320 | 15002 ft | 351 kts | 267° |
| 2026-04-28 18:02 | 18.48361 | -67.80897 | 15001 ft | 350 kts | 267° |
| 2026-04-28 18:03 | 18.48300 | -67.83465 | 15002 ft | 351 kts | 267° |
| 2026-04-28 18:03 | 18.48242 | -67.86004 | 15000 ft | 351 kts | 268° |
| 2026-04-28 18:03 | 18.48185 | -67.88537 | 14938 ft | 346 kts | 268° |
| 2026-04-28 18:03 | 18.48127 | -67.91088 | 14407 ft | 343 kts | 268° |
| 2026-04-28 18:04 | 18.48070 | -67.93578 | 13817 ft | 343 kts | 268° |
| 2026-04-28 18:04 | 18.48011 | -67.96088 | 13201 ft | 342 kts | 268° |
| 2026-04-28 18:04 | 18.47975 | -67.98584 | 12628 ft | 340 kts | 271° |
| 2026-04-28 18:04 | 18.48494 | -68.00992 | 12135 ft | 337 kts | 292° |
| 2026-04-28 18:05 | 18.49776 | -68.03053 | 11577 ft | 337 kts | 307° |
| 2026-04-28 18:05 | 18.50762 | -68.04320 | 11211 ft | 336 kts | 308° |
| 2026-04-28 18:05 | 18.52707 | -68.06836 | 10635 ft | 330 kts | 307° |
| 2026-04-28 18:05 | 18.54102 | -68.08705 | 10419 ft | 318 kts | 306° |
| 2026-04-28 18:06 | 18.55426 | -68.10523 | 10254 ft | 306 kts | 306° |
| 2026-04-28 18:06 | 18.56691 | -68.12279 | 10096 ft | 296 kts | 306° |
| 2026-04-28 18:06 | 18.57930 | -68.14010 | 9957 ft | 295 kts | 306° |
| 2026-04-28 18:06 | 18.59147 | -68.15710 | 9806 ft | 284 kts | 306° |
| 2026-04-28 18:07 | 18.60315 | -68.17343 | 9665 ft | 273 kts | 306° |
| 2026-04-28 18:07 | 18.61430 | -68.18905 | 9533 ft | 270 kts | 306° |
| 2026-04-28 18:07 | 18.62558 | -68.20483 | 9402 ft | 270 kts | 306° |
| 2026-04-28 18:07 | 18.63688 | -68.22066 | 9275 ft | 269 kts | 306° |
| 2026-04-28 18:08 | 18.64815 | -68.23644 | 9151 ft | 269 kts | 306° |
| 2026-04-28 18:08 | 18.65924 | -68.25229 | 9030 ft | 269 kts | 305° |
| 2026-04-28 18:08 | 18.67029 | -68.26822 | 8901 ft | 268 kts | 305° |
| 2026-04-28 18:08 | 18.68119 | -68.28394 | 8755 ft | 261 kts | 305° |
| 2026-04-28 18:09 | 18.69169 | -68.29906 | 8631 ft | 250 kts | 305° |
| 2026-04-28 18:09 | 18.70040 | -68.31443 | 8480 ft | 241 kts | 288° |
| 2026-04-28 18:09 | 18.70201 | -68.33164 | 8235 ft | 236 kts | 258° |
| 2026-04-28 18:09 | 18.69680 | -68.34792 | 7982 ft | 235 kts | 245° |
| 2026-04-28 18:10 | 18.69008 | -68.36368 | 7705 ft | 237 kts | 245° |
| 2026-04-28 18:10 | 18.68340 | -68.37955 | 7416 ft | 236 kts | 245° |
| 2026-04-28 18:10 | 18.67690 | -68.39538 | 7140 ft | 236 kts | 246° |
| 2026-04-28 18:10 | 18.67152 | -68.41177 | 6848 ft | 236 kts | 253° |
| 2026-04-28 18:11 | 18.66732 | -68.42829 | 6501 ft | 237 kts | 254° |
| 2026-04-28 18:11 | 18.66316 | -68.44505 | 6151 ft | 236 kts | 254° |
| 2026-04-28 18:11 | 18.65899 | -68.46176 | 5793 ft | 235 kts | 255° |
| 2026-04-28 18:11 | 18.65482 | -68.47841 | 5477 ft | 234 kts | 254° |
| 2026-04-28 18:12 | 18.65064 | -68.49505 | 5165 ft | 234 kts | 254° |
| 2026-04-28 18:12 | 18.64647 | -68.51165 | 4892 ft | 234 kts | 254° |
| 2026-04-28 18:12 | 18.64237 | -68.52801 | 4634 ft | 232 kts | 254° |
| 2026-04-28 18:12 | 18.63743 | -68.54406 | 4374 ft | 227 kts | 241° |
| 2026-04-28 18:13 | 18.62705 | -68.55590 | 4113 ft | 218 kts | 208° |
| 2026-04-28 18:13 | 18.61280 | -68.55973 | 3861 ft | 210 kts | 178° |
| 2026-04-28 18:13 | 18.59838 | -68.55825 | 3562 ft | 208 kts | 171° |
| 2026-04-28 18:13 | 18.58407 | -68.55636 | 3263 ft | 206 kts | 173° |
| 2026-04-28 18:14 | 18.56994 | -68.55458 | 3022 ft | 201 kts | 168° |
| 2026-04-28 18:14 | 18.55795 | -68.54896 | 2974 ft | 177 kts | 135° |
| 2026-04-28 18:14 | 18.55266 | -68.53879 | 2971 ft | 149 kts | 102° |
| 2026-04-28 18:14 | 18.55259 | -68.52827 | 2762 ft | 142 kts | 82° |
| 2026-04-28 18:15 | 18.55380 | -68.51799 | 2621 ft | 141 kts | 85° |
| 2026-04-28 18:15 | 18.55473 | -68.50767 | 2483 ft | 140 kts | 85° |
| 2026-04-28 18:15 | 18.55560 | -68.49767 | 2325 ft | 135 kts | 84° |
| 2026-04-28 18:15 | 18.55647 | -68.48802 | 2162 ft | 134 kts | 85° |
| 2026-04-28 18:16 | 18.55734 | -68.47827 | 1987 ft | 134 kts | 84° |
| 2026-04-28 18:16 | 18.55815 | -68.46850 | 1809 ft | 134 kts | 85° |
| 2026-04-28 18:16 | 18.55905 | -68.45883 | 1652 ft | 134 kts | 83° |
| 2026-04-28 18:16 | 18.56004 | -68.44910 | 1551 ft | 134 kts | 83° |
| 2026-04-28 18:17 | 18.56101 | -68.43937 | 1474 ft | 132 kts | 83° |
| 2026-04-28 18:17 | 18.56185 | -68.42959 | 1181 ft | 134 kts | 85° |
| 2026-04-28 18:17 | 18.56236 | -68.41984 | 1001 ft | 133 kts | 85° |
| 2026-04-28 18:17 | 18.56327 | -68.41014 | 854 ft | 133 kts | 83° |
| 2026-04-28 18:18 | 18.56406 | -68.40044 | 783 ft | 133 kts | 84° |
| 2026-04-28 18:18 | 18.56499 | -68.39067 | 482 ft | 139 kts | 85° |
| 2026-04-28 18:18 | 18.56594 | -68.38046 | 216 ft | 142 kts | 88° |
| 2026-04-28 18:18 | 18.56642 | -68.37378 | 81 ft | 139 kts | 86° |
| 2026-04-28 18:19 | 18.56756 | -68.36109 | 54 ft | 101 kts | 85° |
| 2026-04-28 18:19 | 18.56803 | -68.35581 | 52 ft | 51 kts | 81° |
| 2026-04-28 18:19 | 18.56839 | -68.35225 | 54 ft | 47 kts | 84° |
| 2026-04-28 18:19 | 18.56844 | -68.34995 | 54 ft | 11 kts | 138° |
| 2026-04-28 18:20 | 18.56821 | -68.34918 | 56 ft | 14 kts | 59° |
| 2026-04-28 18:20 | 18.56854 | -68.34993 | 55 ft | 16 kts | 276° |
| 2026-04-28 18:20 | 18.56845 | -68.35121 | 54 ft | 19 kts | 261° |
| 2026-04-28 18:20 | 18.56829 | -68.35266 | 55 ft | 21 kts | 266° |
| 2026-04-28 18:21 | 18.56817 | -68.35431 | 53 ft | 24 kts | 265° |
| 2026-04-28 18:21 | 18.56800 | -68.35608 | 51 ft | 25 kts | 263° |
| 2026-04-28 18:21 | 18.56786 | -68.35745 | 53 ft | 8 kts | 265° |
| 2026-04-28 18:21 | 18.56742 | -68.35791 | 53 ft | 12 kts | 190° |
| 2026-04-28 18:22 | 18.56644 | -68.35789 | 55 ft | 16 kts | 177° |
| 2026-04-28 18:22 | 18.56545 | -68.35778 | 55 ft | 15 kts | 200° |
| 2026-04-28 18:22 | 18.56499 | -68.35872 | 55 ft | 16 kts | 270° |
| 2026-04-28 18:22 | 18.56506 | -68.35912 | 55 ft | 6 kts | 260° |
| 2026-04-28 18:23 | 18.56500 | -68.35952 | 55 ft | 1 kts | 262° |
| 2026-04-28 18:23 | 18.56500 | -68.35953 | 55 ft | 0 kts | 262° |